createdAt,value
2023-03-17T00:00:52.240Z,95955.66
2023-03-17T00:03:29.741Z,95950.69
2023-03-17T00:05:59.428Z,95952.72
2023-03-17T00:08:39.731Z,95922.28
2023-03-17T00:11:17.594Z,95947.06
2023-03-17T00:13:47.556Z,95926.91
2023-03-17T00:16:20.785Z,95932.38
2023-03-17T00:18:51.082Z,95942.13
2023-03-17T00:21:24.905Z,95923.03
2023-03-17T00:23:54.998Z,95936.69
2023-03-17T00:26:24.813Z,95926.78
2023-03-17T00:28:53.020Z,95914.00
2023-03-17T00:31:25.412Z,95919.66
2023-03-17T00:33:56.910Z,95908.69
2023-03-17T00:36:29.505Z,95925.00
2023-03-17T00:39:02.065Z,95916.44
2023-03-17T00:41:31.038Z,95910.22
2023-03-17T00:44:06.828Z,95925.56
2023-03-17T00:46:39.504Z,95908.53
2023-03-17T00:49:21.543Z,95915.22
2023-03-17T00:51:51.135Z,95912.38
2023-03-17T00:54:21.522Z,95918.50
2023-03-17T00:56:54.084Z,95919.69
2023-03-17T00:59:28.161Z,95913.78
2023-03-17T01:01:58.024Z,95913.50
2023-03-17T01:04:29.396Z,95909.56
2023-03-17T01:07:00.951Z,95889.66
2023-03-17T01:09:28.594Z,95899.25
2023-03-17T01:11:58.223Z,95879.75
2023-03-17T01:14:24.981Z,95877.66
2023-03-17T01:16:53.163Z,95891.91
2023-03-17T01:19:19.798Z,95897.94
2023-03-17T01:21:49.353Z,95887.53
2023-03-17T01:24:16.469Z,95857.28
2023-03-17T01:26:45.913Z,95865.25
2023-03-17T01:29:14.941Z,95843.78
2023-03-17T01:31:46.307Z,95859.38
2023-03-17T01:34:15.276Z,95861.59
2023-03-17T01:36:47.554Z,95859.72
2023-03-17T01:39:14.513Z,95844.16
2023-03-17T01:41:45.638Z,95860.03
2023-03-17T01:44:21.083Z,95852.22
2023-03-17T01:46:47.859Z,95836.19
2023-03-17T01:49:38.851Z,95845.97
2023-03-17T01:52:15.651Z,95849.97
2023-03-17T01:54:53.744Z,95842.25
2023-03-17T01:57:34.722Z,95830.69
2023-03-17T02:00:09.484Z,95838.84
2023-03-17T02:02:47.925Z,95832.34
2023-03-17T02:05:18.090Z,95834.44
2023-03-17T02:07:45.382Z,95816.53
2023-03-17T02:10:19.385Z,95826.00
2023-03-17T02:12:59.822Z,95819.81
2023-03-17T02:15:40.417Z,95828.28
2023-03-17T02:18:12.546Z,95822.66
2023-03-17T02:20:39.134Z,95815.94
2023-03-17T02:23:13.358Z,95808.84
2023-03-17T02:25:47.353Z,95799.09
2023-03-17T02:28:28.373Z,95803.25
2023-03-17T02:30:55.049Z,95797.69
2023-03-17T02:33:24.144Z,95787.19
2023-03-17T02:35:57.496Z,95795.06
2023-03-17T02:38:27.115Z,95779.38
2023-03-17T02:41:04.371Z,95785.44
2023-03-17T02:43:30.991Z,95789.94
2023-03-17T02:46:00.149Z,95783.97
2023-03-17T02:48:29.605Z,95769.38
2023-03-17T02:50:56.311Z,95790.72
2023-03-17T02:53:25.230Z,95791.28
2023-03-17T02:55:51.845Z,95767.75
2023-03-17T02:58:20.809Z,95770.44
2023-03-17T03:00:49.909Z,95770.13
2023-03-17T03:03:21.303Z,95781.38
2023-03-17T03:05:53.130Z,95774.56
2023-03-17T03:08:24.820Z,95762.84
2023-03-17T03:10:55.011Z,95779.75
2023-03-17T03:13:23.940Z,95761.38
2023-03-17T03:15:53.337Z,95782.41
2023-03-17T03:18:20.289Z,95770.13
2023-03-17T03:20:48.936Z,95778.59
2023-03-17T03:23:17.932Z,95777.97
2023-03-17T03:25:49.351Z,95770.13
2023-03-17T03:28:15.990Z,95787.91
2023-03-17T03:30:48.113Z,95776.94
2023-03-17T03:33:20.082Z,95776.00
2023-03-17T03:35:49.656Z,95761.81
2023-03-17T03:38:18.901Z,95769.53
2023-03-17T03:40:48.219Z,95787.00
2023-03-17T03:43:22.849Z,95768.03
2023-03-17T03:45:50.451Z,95769.25
2023-03-17T03:48:22.625Z,95772.63
2023-03-17T03:50:58.274Z,95776.47
2023-03-17T03:53:28.374Z,95780.63
2023-03-17T03:55:57.779Z,95781.38
2023-03-17T03:58:24.702Z,95777.81
2023-03-17T04:00:53.376Z,95759.72
2023-03-17T04:03:20.098Z,95755.28
2023-03-17T04:05:51.321Z,95740.78
2023-03-17T04:08:22.614Z,95743.13
2023-03-17T04:10:52.260Z,95763.41
2023-03-17T04:13:18.892Z,95753.81
2023-03-17T04:15:47.918Z,95771.84
2023-03-17T04:18:14.563Z,95768.91
2023-03-17T04:20:43.619Z,95755.16
2023-03-17T04:23:15.159Z,95765.78
2023-03-17T04:25:45.055Z,95757.91
2023-03-17T04:28:14.391Z,95765.91
2023-03-17T04:30:45.848Z,95759.81
2023-03-17T04:33:15.514Z,95750.34
2023-03-17T04:35:44.662Z,95761.41
2023-03-17T04:38:14.436Z,95747.50
2023-03-17T04:40:41.219Z,95766.19
2023-03-17T04:43:15.399Z,95770.41
2023-03-17T04:45:44.443Z,95755.31
2023-03-17T04:48:13.464Z,95756.19
2023-03-17T04:50:47.899Z,95758.41
2023-03-17T04:53:17.813Z,95768.63
2023-03-17T04:55:47.225Z,95745.25
2023-03-17T04:58:29.545Z,95748.66
2023-03-17T05:00:56.934Z,95771.47
2023-03-17T05:03:30.116Z,95757.25
2023-03-17T05:05:57.867Z,95761.75
2023-03-17T05:08:25.259Z,95771.47
2023-03-17T05:10:57.450Z,95766.75
2023-03-17T05:13:27.326Z,95765.13
2023-03-17T05:15:55.638Z,95755.97
2023-03-17T05:18:25.983Z,95747.94
2023-03-17T05:20:53.014Z,95761.75
2023-03-17T05:23:23.045Z,95775.50
2023-03-17T05:25:50.063Z,95747.94
2023-03-17T05:28:20.930Z,95748.53
2023-03-17T05:30:49.309Z,95764.84
2023-03-17T05:33:21.647Z,95750.16
2023-03-17T05:35:53.764Z,95753.28
2023-03-17T05:38:20.963Z,95749.72
2023-03-17T05:40:51.273Z,95765.56
2023-03-17T05:43:20.657Z,95770.34
2023-03-17T05:45:50.627Z,95744.84
2023-03-17T05:48:17.640Z,95741.69
2023-03-17T05:50:46.608Z,95735.66
2023-03-17T05:53:18.465Z,95737.56
2023-03-17T05:55:45.120Z,95747.19
2023-03-17T05:58:15.821Z,95750.03
2023-03-17T06:00:42.825Z,95757.59
2023-03-17T06:03:12.247Z,95762.47
2023-03-17T06:05:42.574Z,95750.34
2023-03-17T06:08:14.063Z,95747.06
2023-03-17T06:10:45.331Z,95746.19
2023-03-17T06:13:12.004Z,95758.59
2023-03-17T06:15:38.903Z,95748.50
2023-03-17T06:18:08.230Z,95749.28
2023-03-17T06:20:37.269Z,95740.22
2023-03-17T06:23:05.584Z,95754.28
2023-03-17T06:25:34.465Z,95752.22
2023-03-17T06:28:02.611Z,95716.25
2023-03-17T06:30:30.839Z,95748.47
2023-03-17T06:33:05.948Z,95753.34
2023-03-17T06:35:33.819Z,95750.38
2023-03-17T06:38:03.598Z,95749.44
2023-03-17T06:40:34.157Z,95746.78
2023-03-17T06:43:04.438Z,95740.28
2023-03-17T06:45:34.975Z,95714.78
2023-03-17T06:48:02.433Z,95746.19
2023-03-17T06:50:31.799Z,95741.69
2023-03-17T06:52:58.443Z,95750.81
2023-03-17T06:55:30.172Z,95738.19
2023-03-17T06:57:57.057Z,95758.19
2023-03-17T07:00:27.634Z,95747.91
2023-03-17T07:02:54.460Z,95743.41
2023-03-17T07:05:21.054Z,95735.19
2023-03-17T07:07:50.235Z,95731.91
2023-03-17T07:10:23.216Z,95738.50
2023-03-17T07:12:55.121Z,95754.88
2023-03-17T07:15:22.115Z,95731.84
2023-03-17T07:17:51.398Z,95749.63
2023-03-17T07:20:25.173Z,95739.06
2023-03-17T07:22:54.430Z,95747.75
2023-03-17T07:25:21.146Z,95744.84
2023-03-17T07:27:50.065Z,95761.59
2023-03-17T07:30:19.443Z,95738.41
2023-03-17T07:32:53.941Z,95740.75
2023-03-17T07:35:23.507Z,95749.72
2023-03-17T07:37:53.242Z,95741.50
2023-03-17T07:40:22.194Z,95752.69
2023-03-17T07:42:49.961Z,95740.63
2023-03-17T07:45:24.461Z,95739.63
2023-03-17T07:47:54.135Z,95752.53
2023-03-17T07:50:20.829Z,95768.06
2023-03-17T07:52:47.659Z,95748.59
2023-03-17T07:55:16.639Z,95749.28
2023-03-17T07:57:46.315Z,95757.38
2023-03-17T08:00:19.730Z,95746.28
2023-03-17T08:03:06.936Z,95752.50
2023-03-17T08:05:39.718Z,95748.97
2023-03-17T08:08:10.662Z,95746.31
2023-03-17T08:10:41.940Z,95733.47
2023-03-17T08:13:10.887Z,95740.66
2023-03-17T08:15:37.655Z,95749.53
2023-03-17T08:18:07.119Z,95744.19
2023-03-17T08:20:35.034Z,95756.81
2023-03-17T08:23:07.679Z,95768.22
2023-03-17T08:25:34.394Z,95769.25
2023-03-17T08:28:03.629Z,95754.00
2023-03-17T08:30:33.793Z,95760.63
2023-03-17T08:33:03.494Z,95753.34
2023-03-17T08:35:35.345Z,95747.97
2023-03-17T08:38:04.762Z,95742.25
2023-03-17T08:40:34.176Z,95747.28
2023-03-17T08:43:01.384Z,95742.13
2023-03-17T08:45:31.779Z,95728.81
2023-03-17T08:48:03.399Z,95736.66
2023-03-17T08:50:31.194Z,95732.75
2023-03-17T08:53:00.251Z,95743.97
2023-03-17T08:55:29.269Z,95741.78
2023-03-17T08:57:56.203Z,95738.16
2023-03-17T09:00:25.097Z,95745.88
2023-03-17T09:02:54.272Z,95733.38
2023-03-17T09:05:23.643Z,95742.56
2023-03-17T09:07:50.411Z,95742.38
2023-03-17T09:10:21.265Z,95747.78
2023-03-17T09:12:50.300Z,95740.31
2023-03-17T09:15:19.881Z,95738.66
2023-03-17T09:17:49.471Z,95737.06
2023-03-17T09:20:18.716Z,95742.63
2023-03-17T09:22:49.193Z,95725.97
2023-03-17T09:25:19.024Z,95729.28
2023-03-17T09:27:48.224Z,95716.25
2023-03-17T09:30:19.701Z,95717.47
2023-03-17T09:32:49.269Z,95718.63
2023-03-17T09:35:15.984Z,95710.97
2023-03-17T09:37:45.194Z,95709.38
2023-03-17T09:40:18.122Z,95704.81
2023-03-17T09:43:06.080Z,95698.09
2023-03-17T09:45:42.284Z,95705.59
2023-03-17T09:48:26.257Z,95708.94
2023-03-17T09:50:57.733Z,95701.38
2023-03-17T09:53:34.781Z,95695.16
2023-03-17T09:56:14.272Z,95689.00
2023-03-17T09:58:46.218Z,95695.81
2023-03-17T10:01:13.557Z,95682.41
2023-03-17T10:03:45.121Z,95684.34
2023-03-17T10:06:36.101Z,95684.06
2023-03-17T10:09:27.204Z,95681.47
2023-03-17T10:12:25.106Z,95690.47
2023-03-17T10:15:56.533Z,95689.56
2023-03-17T10:18:27.217Z,95685.03
2023-03-17T10:21:04.444Z,95685.25
2023-03-17T10:23:37.214Z,95686.25
2023-03-17T10:26:19.289Z,95684.25
2023-03-17T10:28:45.902Z,95674.44
2023-03-17T10:31:17.898Z,95665.53
2023-03-17T10:33:49.872Z,95665.19
2023-03-17T10:36:31.282Z,95661.88
2023-03-17T10:39:07.139Z,95662.81
2023-03-17T10:41:40.265Z,95655.06
2023-03-17T10:44:28.356Z,95668.56
2023-03-17T10:46:57.737Z,95659.56
2023-03-17T10:49:26.699Z,95669.91
2023-03-17T10:51:54.152Z,95672.34
2023-03-17T10:54:26.539Z,95681.94
2023-03-17T10:57:10.770Z,95665.59
2023-03-17T10:59:49.436Z,95664.41
2023-03-17T11:02:31.630Z,95657.50
2023-03-17T11:05:09.594Z,95661.44
2023-03-17T11:07:40.912Z,95653.59
2023-03-17T11:10:27.104Z,95653.25
2023-03-17T11:13:02.690Z,95662.81
2023-03-17T11:15:39.393Z,95644.06
2023-03-17T11:18:19.643Z,95652.28
2023-03-17T11:20:54.294Z,95641.00
2023-03-17T11:23:43.087Z,95636.94
2023-03-17T11:26:25.914Z,95640.66
2023-03-17T11:28:59.163Z,95632.22
2023-03-17T11:31:39.426Z,95617.88
2023-03-17T11:34:23.462Z,95624.53
2023-03-17T11:37:16.290Z,95620.34
2023-03-17T11:40:21.669Z,95619.72
2023-03-17T11:42:59.758Z,95619.78
2023-03-17T11:45:45.306Z,95616.94
2023-03-17T11:48:33.324Z,95615.63
2023-03-17T11:51:21.171Z,95604.88
2023-03-17T11:53:56.993Z,95608.56
2023-03-17T11:56:39.238Z,95613.75
2023-03-17T11:59:15.631Z,95603.16
2023-03-17T12:01:56.811Z,95599.72
2023-03-17T12:04:34.625Z,95592.69
2023-03-17T12:07:11.967Z,95595.06
2023-03-17T12:09:50.022Z,95589.34
2023-03-17T12:12:30.588Z,95592.44
2023-03-17T12:15:02.258Z,95597.66
2023-03-17T12:17:39.288Z,95592.03
2023-03-17T12:20:33.714Z,95589.97
2023-03-17T12:23:30.005Z,95587.16
2023-03-17T12:26:06.198Z,95578.53
2023-03-17T12:28:49.292Z,95583.72
2023-03-17T12:31:21.693Z,95582.31
2023-03-17T12:34:15.599Z,95581.75
2023-03-17T12:36:44.787Z,95576.69
2023-03-17T12:39:19.056Z,95571.72
2023-03-17T12:41:56.667Z,95571.75
2023-03-17T12:45:15.849Z,95570.38
2023-03-17T12:47:57.301Z,95567.38
2023-03-17T12:51:06.811Z,95567.50
2023-03-17T12:53:43.172Z,95563.88
2023-03-17T12:56:30.137Z,95565.41
2023-03-17T12:59:18.979Z,95558.19
2023-03-17T13:01:54.701Z,95542.22
2023-03-17T13:04:32.401Z,95553.16
2023-03-17T13:07:14.376Z,95550.34
2023-03-17T13:10:12.033Z,95541.72
2023-03-17T13:12:42.171Z,95536.72
2023-03-17T13:15:35.985Z,95535.97
2023-03-17T13:18:14.590Z,95543.19
2023-03-17T13:20:50.925Z,95537.41
2023-03-17T13:23:22.140Z,95529.38
2023-03-17T13:25:53.741Z,95532.34
2023-03-17T13:28:33.997Z,95527.25
2023-03-17T13:31:29.341Z,95528.75
2023-03-17T13:34:05.007Z,95528.72
2023-03-17T13:36:43.052Z,95514.84
2023-03-17T13:39:25.085Z,95531.56
2023-03-17T13:42:15.746Z,95520.59
2023-03-17T13:45:24.169Z,95525.72
2023-03-17T13:47:52.445Z,95523.50
2023-03-17T13:50:32.088Z,95532.94
2023-03-17T13:53:05.010Z,95535.75
2023-03-17T13:55:36.243Z,95522.84
2023-03-17T13:58:11.430Z,95524.97
2023-03-17T14:00:55.314Z,95529.31
2023-03-17T14:03:39.277Z,95514.78
2023-03-17T14:06:08.328Z,95509.75
2023-03-17T14:08:37.257Z,95509.81
2023-03-17T14:11:23.855Z,95511.19
2023-03-17T14:14:08.129Z,95494.56
2023-03-17T14:16:53.130Z,95496.06
2023-03-17T14:19:27.087Z,95498.91
2023-03-17T14:22:04.538Z,95495.34
2023-03-17T14:24:34.267Z,95502.56
2023-03-17T14:27:08.032Z,95493.09
2023-03-17T14:29:37.220Z,95488.78
2023-03-17T14:32:13.487Z,95489.59
2023-03-17T14:34:48.785Z,95501.09
2023-03-17T14:37:15.564Z,95493.84
2023-03-17T14:39:48.137Z,95486.63
2023-03-17T14:42:17.492Z,95486.63
2023-03-17T14:44:46.529Z,95487.34
2023-03-17T14:47:23.561Z,95481.47
2023-03-17T14:49:54.437Z,95477.22
2023-03-17T14:52:27.368Z,95480.88
2023-03-17T14:54:58.695Z,95485.88
2023-03-17T14:57:35.960Z,95472.81
2023-03-17T15:00:16.104Z,95474.25
2023-03-17T15:02:53.911Z,95478.59
2023-03-17T15:05:41.928Z,95474.94
2023-03-17T15:08:36.062Z,95473.44
2023-03-17T15:11:05.692Z,95467.66
2023-03-17T15:13:38.559Z,95462.50
2023-03-17T15:16:15.110Z,95458.16
2023-03-17T15:18:41.976Z,95455.84
2023-03-17T15:21:34.455Z,95462.47
2023-03-17T15:24:06.365Z,95460.28
2023-03-17T15:26:36.717Z,95458.13
2023-03-17T15:29:03.556Z,95452.16
2023-03-17T15:31:32.779Z,95439.19
2023-03-17T15:34:03.986Z,95442.00
2023-03-17T15:36:33.859Z,95457.13
2023-03-17T15:39:02.300Z,95452.06
2023-03-17T15:41:31.549Z,95452.69
2023-03-17T15:44:04.191Z,95453.34
2023-03-17T15:46:33.643Z,95450.47
2023-03-17T15:49:10.740Z,95449.00
2023-03-17T15:51:37.590Z,95445.38
2023-03-17T15:54:06.758Z,95440.19
2023-03-17T15:56:36.256Z,95454.69
2023-03-17T15:59:03.027Z,95427.09
2023-03-17T16:01:32.425Z,95435.81
2023-03-17T16:04:06.816Z,95427.81
2023-03-17T16:06:36.115Z,95450.28
2023-03-17T16:09:05.584Z,95440.69
2023-03-17T16:11:34.713Z,95450.88
2023-03-17T16:14:01.611Z,95439.31
2023-03-17T16:16:42.458Z,95449.41
2023-03-17T16:19:23.455Z,95432.78
2023-03-17T16:21:54.866Z,95434.06
2023-03-17T16:24:26.648Z,95431.97
2023-03-17T16:26:53.830Z,95439.16
2023-03-17T16:29:21.719Z,95436.84
2023-03-17T16:31:50.652Z,95431.06
2023-03-17T16:34:23.999Z,95441.81
2023-03-17T16:36:51.027Z,95419.94
2023-03-17T16:39:22.492Z,95436.72
2023-03-17T16:41:53.541Z,95430.09
2023-03-17T16:44:23.490Z,95430.09
2023-03-17T16:46:52.388Z,95429.34
2023-03-17T16:49:22.932Z,95434.31
2023-03-17T16:51:50.746Z,95419.72
2023-03-17T16:54:17.470Z,95420.44
2023-03-17T16:56:45.256Z,95424.53
2023-03-17T16:59:20.009Z,95418.13
2023-03-17T17:01:47.006Z,95423.75
2023-03-17T17:04:16.223Z,95417.09
2023-03-17T17:06:42.923Z,95421.41
2023-03-17T17:09:14.517Z,95421.91
2023-03-17T17:11:41.358Z,95437.19
2023-03-17T17:14:10.437Z,95426.75
2023-03-17T17:16:42.207Z,95437.72
2023-03-17T17:19:18.834Z,95427.50
2023-03-17T17:21:47.989Z,95437.47
2023-03-17T17:24:19.960Z,95433.88
2023-03-17T17:26:46.709Z,95434.47
2023-03-17T17:29:20.874Z,95441.44
2023-03-17T17:31:47.560Z,95438.47
2023-03-17T17:34:14.354Z,95439.09
2023-03-17T17:36:41.149Z,95441.09
2023-03-17T17:39:10.914Z,95429.28
2023-03-17T17:41:39.808Z,95440.16
2023-03-17T17:44:11.328Z,95434.09
2023-03-17T17:46:40.290Z,95438.47
2023-03-17T17:49:07.174Z,95433.47
2023-03-17T17:51:36.186Z,95435.56
2023-03-17T17:54:06.640Z,95420.41
2023-03-17T17:56:40.119Z,95422.44
2023-03-17T17:59:09.916Z,95427.91
2023-03-17T18:01:41.712Z,95429.69
2023-03-17T18:04:13.011Z,95434.50
2023-03-17T18:06:42.044Z,95427.13
2023-03-17T18:09:15.012Z,95438.44
2023-03-17T18:11:44.270Z,95428.09
2023-03-17T18:14:11.453Z,95436.06
2023-03-17T18:16:40.923Z,95442.31
2023-03-17T18:19:12.667Z,95444.41
2023-03-17T18:21:39.424Z,95447.72
2023-03-17T18:24:11.155Z,95439.47
2023-03-17T18:26:41.664Z,95444.84
2023-03-17T18:29:13.263Z,95434.00
2023-03-17T18:31:49.414Z,95445.47
2023-03-17T18:34:29.698Z,95438.22
2023-03-17T18:37:01.827Z,95424.00
2023-03-17T18:39:28.675Z,95433.44
2023-03-17T18:41:57.597Z,95447.56
2023-03-17T18:44:26.310Z,95458.03
2023-03-17T18:46:55.746Z,95452.19
2023-03-17T18:49:28.344Z,95446.16
2023-03-17T18:51:59.190Z,95440.81
2023-03-17T18:54:31.701Z,95465.84
2023-03-17T18:57:00.897Z,95457.00
2023-03-17T18:59:29.841Z,95456.06
2023-03-17T19:01:59.019Z,95457.09
2023-03-17T19:04:31.058Z,95450.47
2023-03-17T19:07:00.840Z,95453.53
2023-03-17T19:09:29.752Z,95462.88
2023-03-17T19:11:58.659Z,95452.47
2023-03-17T19:14:25.569Z,95449.56
2023-03-17T19:16:55.608Z,95449.50
2023-03-17T19:19:24.687Z,95448.44
2023-03-17T19:21:51.312Z,95450.34
2023-03-17T19:24:22.797Z,95462.53
2023-03-17T19:26:49.533Z,95458.13
2023-03-17T19:29:18.504Z,95469.88
2023-03-17T19:31:50.382Z,95455.97
2023-03-17T19:34:19.348Z,95466.47
2023-03-17T19:36:51.398Z,95472.50
2023-03-17T19:39:21.118Z,95474.72
2023-03-17T19:41:53.288Z,95474.34
2023-03-17T19:44:22.925Z,95472.78
2023-03-17T19:46:52.084Z,95473.25
2023-03-17T19:49:21.303Z,95476.19
2023-03-17T19:51:52.740Z,95484.91
2023-03-17T19:54:23.455Z,95485.91
2023-03-17T19:56:50.347Z,95479.31
2023-03-17T19:59:17.460Z,95486.56
2023-03-17T20:01:44.133Z,95483.50
2023-03-17T20:04:17.626Z,95477.63
2023-03-17T20:06:55.223Z,95481.16
2023-03-17T20:09:26.227Z,95469.38
2023-03-17T20:12:02.834Z,95471.56
2023-03-17T20:14:31.978Z,95484.84
2023-03-17T20:17:03.422Z,95489.09
2023-03-17T20:19:32.622Z,95467.69
2023-03-17T20:22:04.059Z,95479.25
2023-03-17T20:24:31.564Z,95483.16
2023-03-17T20:27:07.165Z,95484.41
2023-03-17T20:29:37.412Z,95479.22
2023-03-17T20:32:06.611Z,95477.66
2023-03-17T20:34:34.705Z,95478.06
2023-03-17T20:37:07.789Z,95477.84
2023-03-17T20:39:34.850Z,95479.94
2023-03-17T20:42:02.532Z,95485.25
2023-03-17T20:44:33.947Z,95500.09
2023-03-17T20:47:03.792Z,95483.53
2023-03-17T20:49:33.274Z,95489.81
2023-03-17T20:51:59.958Z,95502.38
2023-03-17T20:54:26.653Z,95500.47
2023-03-17T20:56:55.933Z,95492.88
2023-03-17T20:59:27.649Z,95497.59
2023-03-17T21:01:57.023Z,95494.56
2023-03-17T21:04:23.701Z,95502.72
2023-03-17T21:06:50.345Z,95492.13
2023-03-17T21:09:19.537Z,95509.03
2023-03-17T21:11:49.291Z,95505.09
2023-03-17T21:14:16.519Z,95508.25
2023-03-17T21:16:47.289Z,95511.00
2023-03-17T21:19:15.512Z,95512.38
2023-03-17T21:21:44.654Z,95504.41
2023-03-17T21:24:31.288Z,95507.44
2023-03-17T21:27:03.740Z,95507.72
2023-03-17T21:29:34.436Z,95510.22
2023-03-17T21:32:04.157Z,95513.50
2023-03-17T21:34:31.994Z,95516.28
2023-03-17T21:36:59.848Z,95522.44
2023-03-17T21:39:34.191Z,95534.09
2023-03-17T21:42:03.810Z,95517.19
2023-03-17T21:44:35.210Z,95532.78
2023-03-17T21:47:03.025Z,95508.00
2023-03-17T21:49:35.319Z,95524.06
2023-03-17T21:52:02.048Z,95530.56
2023-03-17T21:54:31.597Z,95535.03
2023-03-17T21:57:05.284Z,95523.78
2023-03-17T21:59:34.363Z,95543.31
2023-03-17T22:02:03.716Z,95540.84
2023-03-17T22:04:32.717Z,95545.34
2023-03-17T22:07:04.409Z,95528.81
2023-03-17T22:09:31.289Z,95548.28
2023-03-17T22:12:05.454Z,95524.41
2023-03-17T22:14:35.618Z,95525.88
2023-03-17T22:17:08.433Z,95534.50
2023-03-17T22:19:35.127Z,95544.31
2023-03-17T22:22:02.310Z,95536.72
2023-03-17T22:24:29.051Z,95539.34
2023-03-17T22:26:58.182Z,95539.47
2023-03-17T22:29:30.478Z,95543.56
2023-03-17T22:32:00.701Z,95541.66
2023-03-17T22:34:29.747Z,95543.28
2023-03-17T22:36:58.868Z,95533.56
2023-03-17T22:39:25.611Z,95559.25
2023-03-17T22:41:57.307Z,95543.06
2023-03-17T22:44:24.360Z,95563.41
2023-03-17T22:46:50.995Z,95555.59
2023-03-17T22:49:17.635Z,95560.28
2023-03-17T22:51:50.068Z,95563.22
2023-03-17T22:54:18.621Z,95552.66
2023-03-17T22:56:48.634Z,95549.63
2023-03-17T22:59:15.410Z,95542.47
2023-03-17T23:01:45.943Z,95566.78
2023-03-17T23:04:12.975Z,95560.69
2023-03-17T23:06:44.524Z,95570.06
2023-03-17T23:09:13.822Z,95564.00
2023-03-17T23:11:42.868Z,95566.09
2023-03-17T23:14:09.533Z,95573.88
2023-03-17T23:16:38.522Z,95573.25
2023-03-17T23:19:07.915Z,95580.63
2023-03-17T23:21:41.338Z,95583.91
2023-03-17T23:24:10.869Z,95584.72
2023-03-17T23:26:39.718Z,95582.34
2023-03-17T23:29:09.986Z,95594.31
2023-03-17T23:31:40.028Z,95595.06
2023-03-17T23:34:14.192Z,95590.09
2023-03-17T23:36:40.945Z,95587.16
2023-03-17T23:39:12.883Z,95588.53
2023-03-17T23:41:39.524Z,95594.13
2023-03-17T23:44:11.679Z,95590.34
2023-03-17T23:46:38.770Z,95581.66
2023-03-17T23:49:07.423Z,95594.25
2023-03-17T23:51:34.501Z,95601.06
2023-03-17T23:54:09.417Z,95586.16
2023-03-17T23:56:38.092Z,95594.47
2023-03-17T23:59:07.518Z,95587.53
